Terminal Aerodrome Forecast
Issued by NWS

Home | Current Version | Previous Version | Text Only | Print | Product List | Glossary On
Versions: 1 2 3 4 5 6 7 8 9 10 11 12
000
FTUS45 KTFX 101700
TAFLWT
TAF
KLWT 101721Z 1018/1118 32010KT P6SM FEW090
     FM110000 VRB06KT P6SM SCT060 BKN090
     FM110300 09010KT P6SM SCT060=

USA.gov is the U.S. government's official web portal to all federal, state and local government web resources and services.